createdAt,value
2019-04-11T00:00:36.092Z,4.00
2019-04-11T00:03:09.752Z,4.10
2019-04-11T00:05:43.459Z,4.17
2019-04-11T00:08:17.567Z,4.40
2019-04-11T00:10:51.378Z,4.63
2019-04-11T00:13:27.552Z,4.60
2019-04-11T00:16:01.324Z,4.13
2019-04-11T00:18:38.793Z,4.10
2019-04-11T00:21:12.848Z,4.20
2019-04-11T00:23:46.535Z,5.00
2019-04-11T00:26:26.497Z,4.37
2019-04-11T00:29:00.035Z,4.00
2019-04-11T00:31:33.758Z,4.20
2019-04-11T00:34:10.951Z,4.00
2019-04-11T00:36:44.595Z,4.10
2019-04-11T00:39:19.406Z,4.10
2019-04-11T00:41:54.173Z,3.80
2019-04-11T00:44:27.964Z,3.67
2019-04-11T00:47:27.039Z,3.70
2019-04-11T00:50:01.019Z,3.67
2019-04-11T00:52:34.755Z,4.07
2019-04-11T00:55:08.540Z,3.87
2019-04-11T00:57:43.227Z,3.70
2019-04-11T01:00:17.167Z,3.70
2019-04-11T01:02:57.853Z,3.20
2019-04-11T01:05:31.811Z,3.70
2019-04-11T01:08:05.536Z,3.60
2019-04-11T01:10:43.576Z,3.97
2019-04-11T01:13:17.607Z,3.80
2019-04-11T01:15:52.901Z,3.47
2019-04-11T01:18:29.934Z,3.67
2019-04-11T01:21:04.059Z,4.07
2019-04-11T01:23:37.817Z,4.40
2019-04-11T01:26:17.674Z,4.00
2019-04-11T01:28:52.525Z,3.93
2019-04-11T01:31:29.466Z,4.37
2019-04-11T01:34:16.266Z,4.17
2019-04-11T01:37:09.192Z,4.03
2019-04-11T01:39:57.210Z,4.50
2019-04-11T01:42:31.478Z,3.73
2019-04-11T01:45:07.338Z,3.90
2019-04-11T01:48:01.481Z,4.47
2019-04-11T01:50:35.390Z,3.97
2019-04-11T01:53:21.126Z,3.73
2019-04-11T01:55:54.790Z,3.70
2019-04-11T01:58:28.900Z,3.83
2019-04-11T02:01:21.004Z,3.93
2019-04-11T02:06:52.008Z,3.70
2019-04-11T02:09:26.230Z,3.77
2019-04-11T02:11:59.932Z,3.33
2019-04-11T02:14:33.819Z,3.77
2019-04-11T02:17:08.524Z,3.87
2019-04-11T02:19:42.596Z,3.47
2019-04-11T02:22:18.059Z,3.30
2019-04-11T02:25:06.497Z,4.17
2019-04-11T02:27:42.292Z,3.03
2019-04-11T02:30:18.283Z,3.53
2019-04-11T02:33:04.664Z,3.60
2019-04-11T02:35:39.942Z,4.27
2019-04-11T02:38:15.997Z,3.57
2019-04-11T02:40:58.663Z,4.50
2019-04-11T02:43:34.074Z,3.60
2019-04-11T02:46:17.100Z,3.70
2019-04-11T02:48:44.824Z,3.50
2019-04-11T02:51:22.835Z,4.00
2019-04-11T02:53:58.842Z,4.37
2019-04-11T02:56:36.430Z,4.50
2019-04-11T02:59:11.280Z,4.33
2019-04-11T03:01:46.463Z,4.40
2019-04-11T03:04:22.168Z,3.90
2019-04-11T03:06:57.354Z,4.03
2019-04-11T03:09:33.272Z,4.67
2019-04-11T03:12:07.457Z,4.00
2019-04-11T03:15:01.072Z,4.10
2019-04-11T03:17:30.709Z,3.67
2019-04-11T03:20:10.387Z,3.80
2019-04-11T03:22:34.598Z,3.70
2019-04-11T03:25:22.537Z,4.00
2019-04-11T03:27:57.193Z,4.10
2019-04-11T03:30:46.492Z,4.50
2019-04-11T03:38:44.567Z,3.87
2019-04-11T03:41:14.153Z,4.13
2019-04-11T03:43:41.864Z,4.10
2019-04-11T03:46:26.927Z,4.13
2019-04-11T03:48:55.821Z,4.33
2019-04-11T03:51:22.769Z,3.73
2019-04-11T03:53:56.877Z,4.53
2019-04-11T03:56:35.071Z,4.83
2019-04-11T03:59:12.434Z,4.17
2019-04-11T04:01:46.583Z,4.57
2019-04-11T04:04:21.812Z,5.10
2019-04-11T04:06:57.840Z,4.90
2019-04-11T04:09:37.401Z,4.57
2019-04-11T04:12:13.557Z,4.17
2019-04-11T04:17:39.302Z,4.03
2019-04-11T04:20:21.442Z,4.63
2019-04-11T04:23:01.024Z,4.20
2019-04-11T04:25:36.611Z,4.07
2019-04-11T04:28:40.843Z,4.60
2019-04-11T04:31:16.286Z,5.20
2019-04-11T04:34:33.846Z,4.33
2019-04-11T04:37:08.353Z,3.63
2019-04-11T04:39:43.635Z,3.57
2019-04-11T04:42:26.351Z,4.07
2019-04-11T04:44:54.014Z,3.53
2019-04-11T04:47:51.406Z,2.90
2019-04-11T04:50:18.209Z,3.50
2019-04-11T04:52:53.484Z,3.73
2019-04-11T04:55:28.534Z,3.43
2019-04-11T04:58:09.786Z,2.43
2019-04-11T05:00:43.684Z,3.17
2019-04-11T05:03:17.786Z,2.80
2019-04-11T05:05:52.894Z,3.07
2019-04-11T05:08:41.006Z,3.17
2019-04-11T05:11:15.880Z,2.90
2019-04-11T05:13:51.756Z,3.53
2019-04-11T05:16:41.694Z,2.73
2019-04-11T05:19:15.569Z,3.03
2019-04-11T05:21:59.781Z,2.90
2019-04-11T05:24:33.432Z,2.60
2019-04-11T05:27:08.247Z,2.37
2019-04-11T05:29:46.004Z,2.30
2019-04-11T05:32:19.764Z,2.77
2019-04-11T05:35:34.494Z,2.43
2019-04-11T05:38:08.470Z,2.00
2019-04-11T05:40:48.239Z,2.27
2019-04-11T05:43:22.502Z,2.00
2019-04-11T05:45:58.359Z,2.07
2019-04-11T05:48:39.090Z,2.07
2019-04-11T05:51:13.066Z,2.10
2019-04-11T05:53:49.989Z,2.03
2019-04-11T05:56:25.632Z,2.07
2019-04-11T05:59:05.350Z,2.47
2019-04-11T06:01:40.684Z,2.20
2019-04-11T06:04:23.333Z,2.20
2019-04-11T06:06:57.229Z,2.00
2019-04-11T06:09:35.977Z,2.43
2019-04-11T06:12:11.812Z,1.83
2019-04-11T06:14:47.196Z,1.70
2019-04-11T06:17:21.855Z,1.60
2019-04-11T06:20:08.160Z,1.67
2019-04-11T06:22:43.641Z,1.60
2019-04-11T06:25:38.169Z,1.30
2019-04-11T06:28:12.354Z,1.20
2019-04-11T06:31:08.141Z,1.60
2019-04-11T06:33:43.365Z,1.43
2019-04-11T06:36:18.695Z,1.33
2019-04-11T06:39:09.307Z,1.10
2019-04-11T06:42:05.856Z,1.20
2019-04-11T06:44:43.852Z,1.17
2019-04-11T06:47:29.174Z,1.63
2019-04-11T06:58:59.620Z,1.10
2019-04-11T07:01:34.178Z,1.20
2019-04-11T07:04:27.283Z,1.20
2019-04-11T07:07:02.789Z,1.10
2019-04-11T07:09:53.499Z,0.93
2019-04-11T07:12:32.883Z,1.30
2019-04-11T07:15:10.328Z,1.90
2019-04-11T07:18:10.503Z,1.30
2019-04-11T07:21:01.142Z,1.20
2019-04-11T07:26:54.357Z,0.80
2019-04-11T07:29:29.957Z,1.00
2019-04-11T07:32:20.250Z,0.90
2019-04-11T07:35:08.691Z,1.50
2019-04-11T07:37:51.582Z,0.90
2019-04-11T07:40:27.770Z,1.00
2019-04-11T07:43:13.333Z,1.07
2019-04-11T07:45:47.030Z,1.20
2019-04-11T07:48:22.490Z,1.40
2019-04-11T07:51:03.199Z,1.00
2019-04-11T07:53:39.491Z,1.20
2019-04-11T07:56:14.869Z,1.30
2019-04-11T07:58:50.136Z,1.40
2019-04-11T08:04:45.324Z,1.20
2019-04-11T08:07:38.046Z,1.00
2019-04-11T08:10:16.150Z,1.23
2019-04-11T08:13:06.901Z,1.00
2019-04-11T08:15:42.236Z,1.10
2019-04-11T08:18:45.634Z,1.13
2019-04-11T08:21:39.102Z,1.13
2019-04-11T08:29:55.386Z,1.10
2019-04-11T08:38:32.193Z,1.20
2019-04-11T08:41:07.778Z,1.33
2019-04-11T08:43:51.263Z,0.90
2019-04-11T08:46:26.882Z,1.17
2019-04-11T08:49:21.513Z,1.30
2019-04-11T08:51:57.826Z,1.20
2019-04-11T08:54:51.982Z,0.93
2019-04-11T08:57:30.008Z,1.17
2019-04-11T09:00:26.689Z,1.00
2019-04-11T09:03:02.074Z,1.20
2019-04-11T09:06:02.549Z,0.90
2019-04-11T09:08:56.628Z,1.23
2019-04-11T09:11:38.809Z,0.80
2019-04-11T09:14:28.501Z,0.97
2019-04-11T09:17:03.910Z,1.00
2019-04-11T09:19:43.065Z,0.90
2019-04-11T09:22:29.087Z,0.83
2019-04-11T09:25:10.956Z,1.00
2019-04-11T09:27:49.695Z,0.97
2019-04-11T09:30:45.373Z,1.40
2019-04-11T09:33:38.008Z,1.17
2019-04-11T09:36:15.901Z,1.10
2019-04-11T09:39:21.349Z,2.23
2019-04-11T09:44:59.388Z,1.30
2019-04-11T09:48:19.849Z,1.17
2019-04-11T09:51:05.191Z,1.10
2019-04-11T09:53:41.070Z,0.97
2019-04-11T09:56:36.436Z,0.80
2019-04-11T10:02:08.617Z,0.73
2019-04-11T10:04:43.950Z,0.60
2019-04-11T10:07:28.317Z,0.83
2019-04-11T10:10:04.582Z,1.15
2019-04-11T10:12:40.474Z,1.40
2019-04-11T10:15:15.427Z,1.33
2019-04-11T10:20:45.719Z,0.90
2019-04-11T10:23:47.660Z,0.70
2019-04-11T10:26:21.278Z,0.97
2019-04-11T10:29:11.442Z,1.43
2019-04-11T10:34:33.524Z,1.40
2019-04-11T10:37:09.691Z,1.20
2019-04-11T10:40:08.098Z,1.50
2019-04-11T10:42:42.559Z,1.63
2019-04-11T10:45:42.786Z,1.23
2019-04-11T10:48:17.917Z,0.93
2019-04-11T10:51:15.021Z,1.20
2019-04-11T10:53:51.236Z,1.43
2019-04-11T10:56:35.686Z,1.30
2019-04-11T10:59:09.779Z,1.47
2019-04-11T11:02:04.517Z,1.57
2019-04-11T11:04:43.182Z,1.90
2019-04-11T11:07:18.378Z,1.40
2019-04-11T11:09:54.657Z,1.57
2019-04-11T11:12:37.116Z,1.33
2019-04-11T11:15:23.296Z,1.37
2019-04-11T11:18:29.550Z,1.30
2019-04-11T11:20:39.870Z,1.33
2019-04-11T11:23:14.011Z,1.20
2019-04-11T11:26:07.065Z,1.50
2019-04-11T11:28:46.580Z,1.37
2019-04-11T11:31:38.849Z,1.23
2019-04-11T11:34:17.363Z,1.73
2019-04-11T11:36:54.975Z,2.20
2019-04-11T11:39:33.403Z,1.67
2019-04-11T11:46:06.896Z,1.53
2019-04-11T11:48:46.282Z,1.70
2019-04-11T11:51:23.874Z,1.67
2019-04-11T11:54:11.858Z,1.70
2019-04-11T11:56:47.847Z,1.37
2019-04-11T11:59:36.469Z,1.30
2019-04-11T12:02:32.724Z,1.50
2019-04-11T12:05:12.950Z,1.37
2019-04-11T12:07:58.312Z,1.30
2019-04-11T12:10:51.548Z,1.43
2019-04-11T12:13:26.895Z,1.07
2019-04-11T12:16:22.141Z,1.20
2019-04-11T12:19:13.358Z,1.70
2019-04-11T12:21:48.978Z,1.30
2019-04-11T12:24:25.241Z,1.40
2019-04-11T12:27:18.413Z,1.33
2019-04-11T12:30:05.794Z,1.40
2019-04-11T12:32:42.995Z,1.67
2019-04-11T12:35:52.797Z,1.40
2019-04-11T12:41:40.667Z,1.40
2019-04-11T12:45:06.435Z,1.30
2019-04-11T12:47:41.478Z,1.20
2019-04-11T12:53:12.759Z,1.47
2019-04-11T12:56:00.300Z,1.10
2019-04-11T12:58:46.982Z,1.00
2019-04-11T13:01:25.292Z,1.20
2019-04-11T13:06:58.115Z,1.40
2019-04-11T13:09:33.374Z,1.70
2019-04-11T13:12:25.551Z,1.60
2019-04-11T13:15:18.994Z,1.50
2019-04-11T13:18:31.308Z,1.50
2019-04-11T13:21:06.676Z,1.60
2019-04-11T13:27:01.663Z,1.50
2019-04-11T13:29:53.626Z,1.80
2019-04-11T13:32:31.694Z,1.87
2019-04-11T13:35:14.493Z,1.50
2019-04-11T13:38:05.497Z,1.10
2019-04-11T13:43:38.570Z,1.33
2019-04-11T13:46:36.721Z,1.30
2019-04-11T13:55:37.869Z,1.27
2019-04-11T13:58:23.276Z,1.20
2019-04-11T14:00:56.970Z,1.47
2019-04-11T14:03:54.098Z,1.40
2019-04-11T14:06:27.894Z,1.60
2019-04-11T14:09:11.861Z,1.70
2019-04-11T14:11:46.837Z,1.90
2019-04-11T14:14:24.663Z,2.30
2019-04-11T14:17:06.011Z,2.23
2019-04-11T14:19:58.422Z,2.37
2019-04-11T14:22:36.470Z,1.73
2019-04-11T14:25:15.111Z,2.30
2019-04-11T14:27:50.410Z,2.00
2019-04-11T14:30:35.438Z,2.30
2019-04-11T14:33:09.226Z,2.30
2019-04-11T14:35:49.372Z,2.50
2019-04-11T14:38:24.635Z,2.20
2019-04-11T14:41:07.404Z,2.40
2019-04-11T14:43:43.770Z,2.20
2019-04-11T14:49:22.205Z,1.90
2019-04-11T14:52:17.714Z,1.60
2019-04-11T14:55:03.861Z,1.60
2019-04-11T14:57:41.897Z,1.67
2019-04-11T15:00:21.931Z,1.70
2019-04-11T15:02:57.971Z,1.73
2019-04-11T15:05:35.837Z,1.50
2019-04-11T15:08:17.658Z,1.70
2019-04-11T15:11:11.491Z,1.83
2019-04-11T15:13:48.126Z,1.70
2019-04-11T15:17:06.210Z,1.97
2019-04-11T15:19:41.834Z,2.10
2019-04-11T15:22:39.253Z,2.23
2019-04-11T15:28:23.586Z,2.60
2019-04-11T15:31:11.675Z,2.53
2019-04-11T15:36:31.498Z,2.90
2019-04-11T15:39:21.781Z,2.60
2019-04-11T15:42:01.885Z,2.30
2019-04-11T15:44:50.244Z,2.50
2019-04-11T15:47:25.501Z,2.50
2019-04-11T15:53:47.829Z,2.67
2019-04-11T15:56:47.452Z,2.97
2019-04-11T15:59:54.207Z,2.60
2019-04-11T16:02:29.231Z,2.77
2019-04-11T16:05:23.999Z,2.60
2019-04-11T16:08:17.167Z,3.00
2019-04-11T16:10:55.294Z,2.73
2019-04-11T16:13:30.566Z,2.87
2019-04-11T16:16:16.372Z,2.93
2019-04-11T16:22:01.349Z,3.20
2019-04-11T16:24:36.610Z,2.83
2019-04-11T16:27:11.852Z,3.30
2019-04-11T16:29:59.080Z,3.20
2019-04-11T16:33:07.712Z,3.07
2019-04-11T16:35:57.264Z,3.13
2019-04-11T16:38:32.816Z,3.00
2019-04-11T16:41:25.111Z,2.73
2019-04-11T16:44:00.427Z,3.07
2019-04-11T16:47:01.626Z,3.13
2019-04-11T16:49:35.529Z,2.90
2019-04-11T16:52:09.259Z,3.10
2019-04-11T16:54:42.944Z,2.93
2019-04-11T16:57:16.571Z,2.70
2019-04-11T16:59:50.680Z,3.37
2019-04-11T17:02:24.944Z,3.17
2019-04-11T17:05:08.107Z,2.80
2019-04-11T17:07:56.205Z,2.90
2019-04-11T17:10:47.897Z,2.83
2019-04-11T17:15:54.315Z,2.87
2019-04-11T17:18:44.218Z,3.27
2019-04-11T17:21:18.362Z,2.73
2019-04-11T17:23:52.150Z,2.97
2019-04-11T17:26:28.023Z,2.90
2019-04-11T17:29:01.716Z,2.47
2019-04-11T17:31:47.598Z,2.80
2019-04-11T17:34:21.236Z,2.90
2019-04-11T17:37:02.506Z,2.97
2019-04-11T17:39:36.810Z,3.10
2019-04-11T17:42:10.856Z,3.00
2019-04-11T17:45:27.986Z,3.50
2019-04-11T17:48:01.705Z,3.97
2019-04-11T17:50:58.446Z,3.27
2019-04-11T17:53:32.033Z,3.57
2019-04-11T17:56:09.036Z,3.40
2019-04-11T17:58:57.682Z,3.90
2019-04-11T18:01:30.180Z,3.23
2019-04-11T18:04:03.841Z,3.80
2019-04-11T18:06:37.541Z,3.50
2019-04-11T18:09:25.511Z,3.67
2019-04-11T18:12:08.806Z,3.80
2019-04-11T18:14:42.394Z,3.60
2019-04-11T18:17:23.266Z,3.80
2019-04-11T18:19:56.980Z,3.60
2019-04-11T18:22:30.982Z,4.03
2019-04-11T18:25:06.547Z,3.53
2019-04-11T18:27:52.521Z,4.17
2019-04-11T18:30:26.234Z,4.13
2019-04-11T18:33:21.071Z,3.63
2019-04-11T18:35:54.770Z,3.83
2019-04-11T18:38:31.826Z,3.67
2019-04-11T18:41:13.772Z,4.17
2019-04-11T18:43:47.898Z,3.80
2019-04-11T18:46:28.830Z,3.73
2019-04-11T18:49:02.559Z,3.83
2019-04-11T18:51:38.523Z,3.30
2019-04-11T18:54:12.525Z,4.13
2019-04-11T18:56:46.236Z,3.93
2019-04-11T18:59:19.902Z,3.73
2019-04-11T19:02:09.629Z,3.90
2019-04-11T19:04:42.796Z,4.00
2019-04-11T19:07:27.354Z,3.50
2019-04-11T19:09:56.158Z,4.10
2019-04-11T19:12:29.905Z,3.57
2019-04-11T19:15:08.639Z,4.30
2019-04-11T19:17:43.921Z,3.83
2019-04-11T19:20:19.245Z,4.00
2019-04-11T19:22:55.264Z,4.07
2019-04-11T19:25:31.492Z,3.80
2019-04-11T19:28:08.166Z,4.83
2019-04-11T19:30:42.602Z,4.20
2019-04-11T19:33:16.177Z,4.23
2019-04-11T19:35:49.873Z,3.90
2019-04-11T19:38:35.950Z,3.70
2019-04-11T19:41:09.639Z,4.33
2019-04-11T19:43:49.317Z,4.13
2019-04-11T19:46:23.304Z,3.63
2019-04-11T19:48:59.250Z,4.20
2019-04-11T19:51:38.703Z,4.20
2019-04-11T19:54:12.468Z,3.90
2019-04-11T19:56:50.441Z,3.83
2019-04-11T19:59:24.020Z,3.43
2019-04-11T20:01:57.716Z,3.43
2019-04-11T20:04:32.918Z,3.53
2019-04-11T20:07:06.614Z,4.27
2019-04-11T20:09:58.533Z,3.93
2019-04-11T20:12:32.765Z,3.67
2019-04-11T20:15:13.213Z,3.63
2019-04-11T20:17:51.058Z,3.40
2019-04-11T20:20:22.215Z,3.70
2019-04-11T20:22:59.210Z,3.87
2019-04-11T20:25:32.242Z,3.50
2019-04-11T20:28:06.129Z,3.43
2019-04-11T20:30:39.892Z,3.83
2019-04-11T20:33:27.326Z,3.33
2019-04-11T20:35:57.728Z,3.23
2019-04-11T20:38:31.693Z,2.80
2019-04-11T20:41:05.944Z,2.97
2019-04-11T20:43:39.703Z,3.00
2019-04-11T20:46:19.840Z,2.87
2019-04-11T20:48:54.695Z,3.23
2019-04-11T20:51:28.614Z,3.47
2019-04-11T20:54:07.006Z,3.37
2019-04-11T20:56:41.038Z,2.93
2019-04-11T20:59:18.639Z,3.10
2019-04-11T21:02:05.422Z,2.87
2019-04-11T21:04:39.300Z,2.97
2019-04-11T21:07:17.895Z,2.80
2019-04-11T21:09:51.494Z,3.10
2019-04-11T21:12:30.196Z,3.27
2019-04-11T21:15:04.655Z,2.97
2019-04-11T21:17:43.543Z,3.40
2019-04-11T21:20:17.330Z,3.00
2019-04-11T21:22:53.566Z,3.17
2019-04-11T21:25:28.579Z,3.13
2019-04-11T21:28:03.053Z,3.30
2019-04-11T21:30:38.592Z,2.83
2019-04-11T21:33:12.221Z,3.00
2019-04-11T21:35:45.895Z,3.00
2019-04-11T21:38:19.807Z,3.30
2019-04-11T21:40:53.502Z,3.43
2019-04-11T21:43:27.368Z,2.90
2019-04-11T21:46:01.067Z,3.00
2019-04-11T21:48:41.782Z,2.50
2019-04-11T21:51:15.684Z,3.10
2019-04-11T21:53:49.309Z,2.73
2019-04-11T21:56:35.007Z,3.07
2019-04-11T21:59:08.683Z,3.10
2019-04-11T22:01:44.150Z,3.07
2019-04-11T22:04:18.076Z,3.30
2019-04-11T22:06:51.854Z,2.90
2019-04-11T22:09:25.583Z,2.60
2019-04-11T22:11:59.301Z,2.73
2019-04-11T22:14:32.972Z,2.70
2019-04-11T22:17:06.672Z,2.60
2019-04-11T22:19:40.332Z,2.80
2019-04-11T22:22:14.035Z,3.03
2019-04-11T22:24:47.643Z,2.83
2019-04-11T22:27:22.277Z,3.03
2019-04-11T22:29:56.496Z,3.23
2019-04-11T22:32:30.198Z,3.03
2019-04-11T22:35:04.461Z,2.90
2019-04-11T22:37:38.043Z,3.47
2019-04-11T22:40:14.717Z,3.23
2019-04-11T22:42:48.368Z,3.17
2019-04-11T22:45:37.937Z,3.00
2019-04-11T22:48:12.196Z,3.27
2019-04-11T22:50:45.790Z,3.00
2019-04-11T22:53:19.698Z,3.00
2019-04-11T22:55:53.639Z,3.03
2019-04-11T22:58:27.275Z,3.20
2019-04-11T23:01:00.967Z,3.27
2019-04-11T23:03:41.366Z,3.23
2019-04-11T23:09:19.761Z,3.10
2019-04-11T23:11:53.423Z,2.83
2019-04-11T23:14:27.063Z,3.37
2019-04-11T23:17:11.842Z,3.20
2019-04-11T23:19:45.237Z,2.87
2019-04-11T23:22:18.952Z,3.37
2019-04-11T23:24:52.572Z,2.70
2019-04-11T23:27:26.607Z,3.17
2019-04-11T23:30:02.562Z,3.60
2019-04-11T23:32:36.140Z,3.23
2019-04-11T23:35:09.895Z,2.90
2019-04-11T23:38:09.322Z,3.33
2019-04-11T23:40:42.951Z,3.23
2019-04-11T23:43:19.842Z,2.77
2019-04-11T23:46:09.180Z,2.63
2019-04-11T23:48:42.817Z,2.90
2019-04-11T23:51:28.547Z,2.70
2019-04-11T23:54:02.251Z,2.70
2019-04-11T23:56:35.830Z,2.47
2019-04-11T23:59:14.296Z,2.57
